createdAt,value
2023-08-05T00:01:41.829Z,98.98
2023-08-05T00:04:08.497Z,99.35
2023-08-05T00:06:35.045Z,98.11
2023-08-05T00:09:01.555Z,98.13
2023-08-05T00:11:28.138Z,99.23
2023-08-05T00:13:54.587Z,99.89
2023-08-05T00:16:21.098Z,100.00
2023-08-05T00:18:47.595Z,100.00
2023-08-05T00:21:14.552Z,99.44
2023-08-05T00:23:41.113Z,98.60
2023-08-05T00:26:07.620Z,97.50
2023-08-05T00:28:34.075Z,97.69
2023-08-05T00:31:00.592Z,98.55
2023-08-05T00:33:27.169Z,98.51
2023-08-05T00:35:53.756Z,99.39
2023-08-05T00:38:21.209Z,99.68
2023-08-05T00:40:47.749Z,100.00
2023-08-05T00:43:14.277Z,98.94
2023-08-05T00:45:40.883Z,97.96
2023-08-05T00:48:07.664Z,99.19
2023-08-05T00:50:35.114Z,99.54
2023-08-05T00:53:04.773Z,100.00
2023-08-05T00:55:33.524Z,100.00
2023-08-05T00:58:00.315Z,100.00
2023-08-05T01:00:26.866Z,99.28
2023-08-05T01:02:53.982Z,99.85
2023-08-05T01:05:21.022Z,100.00
2023-08-05T01:07:48.355Z,100.00
2023-08-05T01:10:15.135Z,100.00
2023-08-05T01:12:43.056Z,100.00
2023-08-05T01:15:09.857Z,100.00
2023-08-05T01:17:36.708Z,99.09
2023-08-05T01:20:05.420Z,98.65
2023-08-05T01:22:41.735Z,98.35
2023-08-05T01:25:25.597Z,99.13
2023-08-05T01:27:53.551Z,99.32
2023-08-05T01:30:21.351Z,99.24
2023-08-05T01:32:48.647Z,99.17
2023-08-05T01:35:15.215Z,99.22
2023-08-05T01:37:41.720Z,100.00
2023-08-05T01:40:09.205Z,100.00
2023-08-05T01:42:35.697Z,100.00
2023-08-05T01:45:02.205Z,100.00
2023-08-05T01:47:28.779Z,99.83
2023-08-05T01:49:55.452Z,99.50
2023-08-05T01:52:22.013Z,99.36
2023-08-05T01:54:48.645Z,98.04
2023-08-05T01:57:15.140Z,98.66
2023-08-05T01:59:41.686Z,99.48
2023-08-05T02:02:08.234Z,99.54
2023-08-05T02:04:35.262Z,100.00
2023-08-05T02:07:01.833Z,100.00
2023-08-05T02:09:28.327Z,100.00
2023-08-05T02:11:54.782Z,100.00
2023-08-05T02:14:21.293Z,99.45
2023-08-05T02:16:47.999Z,100.00
2023-08-05T02:19:14.691Z,100.00
2023-08-05T02:21:41.292Z,100.00
2023-08-05T02:24:11.284Z,100.00
2023-08-05T02:26:38.653Z,100.00
2023-08-05T02:29:05.205Z,100.00
2023-08-05T02:31:31.767Z,100.00
2023-08-05T02:33:58.300Z,100.00
2023-08-05T02:36:25.317Z,100.00
2023-08-05T02:38:51.818Z,100.00
2023-08-05T02:41:21.430Z,99.94
2023-08-05T02:43:47.996Z,100.00
2023-08-05T02:46:14.705Z,99.47
2023-08-05T02:48:41.337Z,98.50
2023-08-05T02:51:07.878Z,98.98
2023-08-05T02:53:34.469Z,99.93
2023-08-05T02:56:01.090Z,100.00
2023-08-05T02:58:27.838Z,100.00
2023-08-05T03:00:55.120Z,100.00
2023-08-05T03:03:21.759Z,100.00
2023-08-05T03:05:48.290Z,100.00
2023-08-05T03:08:14.836Z,100.00
2023-08-05T03:10:41.632Z,100.00
2023-08-05T03:13:09.247Z,100.00
2023-08-05T03:15:35.839Z,100.00
2023-08-05T03:18:02.471Z,100.00
2023-08-05T03:20:30.983Z,100.00
2023-08-05T03:22:58.011Z,100.00
2023-08-05T03:25:26.016Z,100.00
2023-08-05T03:27:52.595Z,100.00
2023-08-05T03:30:19.815Z,99.69
2023-08-05T03:32:49.557Z,100.00
2023-08-05T03:35:16.550Z,100.00
2023-08-05T03:37:43.194Z,100.00
2023-08-05T03:40:09.859Z,100.00
2023-08-05T03:42:36.756Z,100.00
2023-08-05T03:45:05.462Z,100.00
2023-08-05T03:47:33.086Z,99.54
2023-08-05T03:49:59.688Z,100.00
2023-08-05T03:52:27.758Z,100.00
2023-08-05T03:54:54.820Z,100.00
2023-08-05T03:57:21.342Z,100.00
2023-08-05T03:59:49.230Z,100.00
2023-08-05T04:02:16.041Z,100.00
2023-08-05T04:04:43.823Z,100.00
2023-08-05T04:07:10.761Z,100.00
2023-08-05T04:09:38.210Z,100.00
2023-08-05T04:12:10.348Z,100.00
2023-08-05T04:14:38.841Z,100.00
2023-08-05T04:17:05.727Z,100.00
2023-08-05T04:19:34.083Z,100.00
2023-08-05T04:22:02.092Z,100.00
2023-08-05T04:24:29.615Z,100.00
2023-08-05T04:26:56.172Z,100.00
2023-08-05T04:29:25.615Z,100.00
2023-08-05T04:31:53.667Z,100.00
2023-08-05T04:34:20.792Z,100.00
2023-08-05T04:36:51.609Z,100.00
2023-08-05T04:39:22.177Z,100.00
2023-08-05T04:41:49.174Z,100.00
2023-08-05T04:44:15.819Z,100.00
2023-08-05T04:46:42.449Z,100.00
2023-08-05T04:49:10.970Z,100.00
2023-08-05T04:51:38.099Z,100.00
2023-08-05T04:54:05.180Z,100.00
2023-08-05T04:56:31.916Z,100.00
2023-08-05T04:58:58.470Z,100.00
2023-08-05T05:01:25.115Z,100.00
2023-08-05T05:03:52.973Z,100.00
2023-08-05T05:06:19.654Z,100.00
2023-08-05T05:08:46.229Z,100.00
2023-08-05T05:11:12.949Z,100.00
2023-08-05T05:13:39.876Z,100.00
2023-08-05T05:16:07.434Z,100.00
2023-08-05T05:18:33.883Z,100.00
2023-08-05T05:21:01.791Z,100.00
2023-08-05T05:23:28.455Z,100.00
2023-08-05T05:25:55.046Z,100.00
2023-08-05T05:28:21.593Z,100.00
2023-08-05T05:30:48.125Z,100.00
2023-08-05T05:33:14.672Z,100.00
2023-08-05T05:35:41.189Z,100.00
2023-08-05T05:38:07.682Z,100.00
2023-08-05T05:40:34.188Z,100.00
2023-08-05T05:43:00.738Z,100.00
2023-08-05T05:45:29.376Z,100.00
2023-08-05T05:47:55.961Z,100.00
2023-08-05T05:50:22.906Z,100.00
2023-08-05T05:52:54.557Z,100.00
2023-08-05T05:55:21.731Z,100.00
2023-08-05T05:57:50.010Z,100.00
2023-08-05T06:00:16.697Z,100.00
2023-08-05T06:02:43.455Z,100.00
2023-08-05T06:05:13.259Z,100.00
2023-08-05T06:07:40.054Z,100.00
2023-08-05T06:10:07.244Z,100.00
2023-08-05T06:12:37.466Z,100.00
2023-08-05T06:15:07.727Z,100.00
2023-08-05T06:17:34.551Z,100.00
2023-08-05T06:20:01.029Z,100.00
2023-08-05T06:22:27.613Z,100.00
2023-08-05T06:24:54.124Z,100.00
2023-08-05T06:27:20.630Z,100.00
2023-08-05T06:29:49.967Z,98.81
2023-08-05T06:32:16.452Z,96.92
2023-08-05T06:34:45.169Z,96.57
2023-08-05T06:37:11.659Z,96.21
2023-08-05T06:39:39.175Z,95.90
2023-08-05T06:42:05.970Z,95.12
2023-08-05T06:44:32.608Z,94.45
2023-08-05T06:46:59.257Z,94.71
2023-08-05T06:49:28.967Z,93.73
2023-08-05T06:51:58.123Z,96.11
2023-08-05T06:54:25.100Z,97.43
2023-08-05T06:56:52.668Z,96.56
2023-08-05T06:59:19.312Z,97.75
2023-08-05T07:01:48.733Z,97.06
2023-08-05T07:04:15.781Z,98.32
2023-08-05T07:06:42.640Z,97.47
2023-08-05T07:09:09.156Z,96.76
2023-08-05T07:11:37.808Z,96.83
2023-08-05T07:14:04.625Z,94.84
2023-08-05T07:16:31.161Z,94.95
2023-08-05T07:18:59.972Z,95.53
2023-08-05T07:21:26.703Z,93.17
2023-08-05T07:23:55.280Z,91.84
2023-08-05T07:26:21.839Z,89.15
2023-08-05T07:28:49.957Z,87.28
2023-08-05T07:31:17.957Z,87.37
2023-08-05T07:33:47.399Z,86.22
2023-08-05T07:36:19.562Z,84.98
2023-08-05T07:38:48.028Z,86.06
2023-08-05T07:41:16.149Z,84.49
2023-08-05T07:43:43.630Z,84.18
2023-08-05T07:46:15.008Z,85.47
2023-08-05T07:48:42.084Z,84.14
2023-08-05T07:51:08.677Z,83.52
2023-08-05T07:53:38.218Z,85.07
2023-08-05T07:56:14.121Z,84.28
2023-08-05T07:58:43.239Z,85.77
2023-08-05T08:01:14.686Z,85.11
2023-08-05T08:03:46.514Z,83.40
2023-08-05T08:06:21.732Z,80.56
2023-08-05T08:08:52.696Z,81.02
2023-08-05T08:11:19.384Z,80.00
2023-08-05T08:13:45.885Z,80.26
2023-08-05T08:16:12.594Z,82.02
2023-08-05T08:18:39.296Z,80.37
2023-08-05T08:21:06.564Z,82.57
2023-08-05T08:23:33.176Z,79.66
2023-08-05T08:26:00.137Z,80.97
2023-08-05T08:28:27.487Z,82.36
2023-08-05T08:30:58.339Z,80.93
2023-08-05T08:33:26.029Z,80.59
2023-08-05T08:35:53.324Z,80.51
2023-08-05T08:38:20.330Z,77.86
2023-08-05T08:40:51.613Z,77.62
2023-08-05T08:43:20.048Z,75.93
2023-08-05T08:45:56.158Z,74.63
2023-08-05T08:48:25.016Z,76.42
2023-08-05T08:50:53.777Z,76.85
2023-08-05T08:53:23.865Z,76.74
2023-08-05T08:55:50.453Z,73.38
2023-08-05T08:58:17.067Z,72.61
2023-08-05T09:00:44.166Z,74.19
2023-08-05T09:03:11.090Z,74.02
2023-08-05T09:05:43.361Z,72.72
2023-08-05T09:08:10.627Z,73.09
2023-08-05T09:10:38.884Z,73.48
2023-08-05T09:13:08.007Z,74.16
2023-08-05T09:15:37.189Z,76.34
2023-08-05T09:18:08.817Z,77.46
2023-08-05T09:20:36.832Z,78.30
2023-08-05T09:23:05.963Z,79.45
2023-08-05T09:25:34.025Z,79.28
2023-08-05T09:28:05.270Z,79.69
2023-08-05T09:30:33.777Z,80.41
2023-08-05T09:33:04.048Z,78.23
2023-08-05T09:35:30.881Z,77.65
2023-08-05T09:37:57.607Z,76.73
2023-08-05T09:40:35.024Z,77.44
2023-08-05T09:43:04.090Z,77.70
2023-08-05T09:45:34.930Z,77.46
2023-08-05T09:48:08.658Z,79.38
2023-08-05T09:50:41.221Z,79.71
2023-08-05T09:53:09.553Z,77.81
2023-08-05T09:55:37.828Z,79.15
2023-08-05T09:58:08.873Z,81.19
2023-08-05T10:00:42.741Z,82.07
2023-08-05T10:03:16.717Z,82.96
2023-08-05T10:05:45.694Z,82.80
2023-08-05T10:08:14.191Z,83.04
2023-08-05T10:10:41.613Z,80.23
2023-08-05T10:13:17.222Z,81.13
2023-08-05T10:15:47.447Z,82.10
2023-08-05T10:18:16.154Z,84.38
2023-08-05T10:20:42.779Z,82.44
2023-08-05T10:23:10.780Z,79.45
2023-08-05T10:25:48.884Z,80.32
2023-08-05T10:28:24.866Z,81.38
2023-08-05T10:30:52.539Z,82.43
2023-08-05T10:33:19.677Z,82.65
2023-08-05T10:35:46.862Z,82.70
2023-08-05T10:38:15.975Z,86.79
2023-08-05T10:41:03.975Z,90.63
2023-08-05T10:43:39.903Z,89.43
2023-08-05T10:46:06.507Z,90.34
2023-08-05T10:48:46.015Z,90.63
2023-08-05T10:51:14.540Z,91.08
2023-08-05T10:53:47.406Z,88.84
2023-08-05T10:56:15.079Z,86.78
2023-08-05T10:58:50.224Z,86.76
2023-08-05T11:01:17.470Z,85.44
2023-08-05T11:03:56.014Z,83.34
2023-08-05T11:06:24.020Z,84.63
2023-08-05T11:08:50.706Z,82.37
2023-08-05T11:11:17.619Z,84.11
2023-08-05T11:13:46.160Z,84.18
2023-08-05T11:16:14.218Z,81.84
2023-08-05T11:18:42.414Z,83.31
2023-08-05T11:21:12.620Z,82.96
2023-08-05T11:23:40.894Z,82.68
2023-08-05T11:26:08.380Z,82.36
2023-08-05T11:28:35.298Z,82.09
2023-08-05T11:31:02.804Z,80.92
2023-08-05T11:33:32.927Z,77.92
2023-08-05T11:36:01.914Z,74.82
2023-08-05T11:38:30.843Z,73.84
2023-08-05T11:40:58.135Z,71.34
2023-08-05T11:43:25.211Z,73.46
2023-08-05T11:45:53.185Z,72.83
2023-08-05T11:48:26.205Z,72.05
2023-08-05T11:51:01.163Z,72.04
2023-08-05T11:53:28.476Z,72.14
2023-08-05T11:55:55.129Z,70.73
2023-08-05T11:58:24.606Z,71.30
2023-08-05T12:00:56.064Z,72.26
2023-08-05T12:03:22.693Z,67.71
2023-08-05T12:06:04.378Z,70.01
2023-08-05T12:08:45.491Z,69.83
2023-08-05T12:11:19.151Z,68.07
2023-08-05T12:13:45.872Z,69.74
2023-08-05T12:16:19.896Z,67.00
2023-08-05T12:18:53.254Z,67.54
2023-08-05T12:21:24.467Z,63.92
2023-08-05T12:23:51.076Z,64.02
2023-08-05T12:26:26.502Z,62.97
2023-08-05T12:28:52.986Z,63.07
2023-08-05T12:31:22.220Z,62.35
2023-08-05T12:33:48.801Z,63.76
2023-08-05T12:36:15.420Z,64.94
2023-08-05T12:38:42.118Z,63.84
2023-08-05T12:41:08.675Z,65.87
2023-08-05T12:43:35.254Z,67.26
2023-08-05T12:46:06.322Z,67.48
2023-08-05T12:48:35.079Z,67.96
2023-08-05T12:51:01.651Z,68.09
2023-08-05T12:53:30.628Z,69.34
2023-08-05T12:55:57.867Z,67.04
2023-08-05T12:58:24.446Z,68.25
2023-08-05T13:00:53.823Z,67.93
2023-08-05T13:03:20.659Z,67.82
2023-08-05T13:05:47.282Z,65.88
2023-08-05T13:08:16.616Z,65.51
2023-08-05T13:10:48.462Z,63.67
2023-08-05T13:13:15.171Z,65.31
2023-08-05T13:15:43.485Z,63.02
2023-08-05T13:18:13.328Z,63.87
2023-08-05T13:20:40.005Z,63.53
2023-08-05T13:23:06.697Z,65.69
2023-08-05T13:25:38.533Z,64.44
2023-08-05T13:28:07.334Z,65.44
2023-08-05T13:30:35.887Z,63.83
2023-08-05T13:33:05.085Z,63.39
2023-08-05T13:35:35.722Z,61.83
2023-08-05T13:38:02.431Z,62.20
2023-08-05T13:40:29.063Z,64.21
2023-08-05T13:42:55.621Z,64.11
2023-08-05T13:45:58.471Z,65.21
2023-08-05T13:48:29.117Z,64.68
2023-08-05T13:51:06.393Z,64.01
2023-08-05T13:53:36.545Z,63.14
2023-08-05T13:56:03.702Z,62.00
2023-08-05T13:58:30.458Z,63.58
2023-08-05T14:01:00.233Z,63.84
2023-08-05T14:03:29.780Z,63.18
2023-08-05T14:06:00.596Z,64.59
2023-08-05T14:08:30.538Z,62.80
2023-08-05T14:10:57.160Z,64.45
2023-08-05T14:13:26.761Z,63.70
2023-08-05T14:15:55.976Z,65.54
2023-08-05T14:18:23.233Z,65.60
2023-08-05T14:20:50.257Z,69.90
2023-08-05T14:23:23.344Z,74.10
2023-08-05T14:25:50.093Z,81.20
2023-08-05T14:28:18.871Z,85.63
2023-08-05T14:30:47.888Z,84.86
2023-08-05T14:33:14.472Z,89.26
2023-08-05T14:35:41.096Z,93.93
2023-08-05T14:38:10.537Z,89.00
2023-08-05T14:40:37.700Z,90.96
2023-08-05T14:43:05.191Z,90.00
2023-08-05T14:45:31.938Z,93.70
2023-08-05T14:47:59.490Z,93.75
2023-08-05T14:50:26.379Z,97.25
2023-08-05T14:52:55.898Z,97.61
2023-08-05T14:55:24.426Z,98.80
2023-08-05T14:57:51.064Z,98.78
2023-08-05T15:00:17.726Z,100.00
2023-08-05T15:02:45.667Z,100.00
2023-08-05T15:05:12.281Z,100.00
2023-08-05T15:07:41.486Z,100.00
2023-08-05T15:10:10.107Z,100.00
2023-08-05T15:12:36.961Z,100.00
2023-08-05T15:15:04.869Z,100.00
2023-08-05T15:17:33.644Z,100.00
2023-08-05T15:20:00.386Z,100.00
2023-08-05T15:22:29.739Z,100.00
2023-08-05T15:24:58.720Z,100.00
2023-08-05T15:27:25.348Z,100.00
2023-08-05T15:30:01.237Z,100.00
2023-08-05T15:32:30.913Z,100.00
2023-08-05T15:34:57.526Z,96.85
2023-08-05T15:37:24.067Z,100.00
2023-08-05T15:39:54.654Z,98.25
2023-08-05T15:42:21.187Z,97.80
2023-08-05T15:44:50.272Z,96.85
2023-08-05T15:47:17.812Z,99.40
2023-08-05T15:49:44.489Z,99.21
2023-08-05T15:52:13.128Z,98.68
2023-08-05T15:54:45.575Z,96.71
2023-08-05T15:57:12.118Z,98.42
2023-08-05T15:59:38.695Z,98.70
2023-08-05T16:02:06.378Z,96.76
2023-08-05T16:04:38.182Z,97.99
2023-08-05T16:07:06.167Z,98.68
2023-08-05T16:09:32.867Z,97.93
2023-08-05T16:11:59.442Z,99.54
2023-08-05T16:14:25.998Z,99.17
2023-08-05T16:16:52.833Z,100.00
2023-08-05T16:19:20.940Z,100.00
2023-08-05T16:21:48.411Z,100.00
2023-08-05T16:24:14.897Z,100.00
2023-08-05T16:26:44.604Z,100.00
2023-08-05T16:29:12.796Z,100.00
2023-08-05T16:31:42.274Z,100.00
2023-08-05T16:34:08.750Z,100.00
2023-08-05T16:36:37.222Z,100.00
2023-08-05T16:39:04.992Z,100.00
2023-08-05T16:41:31.496Z,100.00
2023-08-05T16:43:59.377Z,100.00
2023-08-05T16:46:38.955Z,100.00
2023-08-05T16:49:12.540Z,100.00
2023-08-05T16:51:39.164Z,100.00
2023-08-05T16:54:07.754Z,100.00
2023-08-05T16:56:37.384Z,100.00
2023-08-05T16:59:06.362Z,100.00
2023-08-05T17:01:34.104Z,98.79
2023-08-05T17:04:01.104Z,100.00
2023-08-05T17:06:27.672Z,100.00
2023-08-05T17:08:54.217Z,96.91
2023-08-05T17:11:20.719Z,97.41
2023-08-05T17:13:47.229Z,96.43
2023-08-05T17:16:13.730Z,99.12
2023-08-05T17:18:41.954Z,94.91
2023-08-05T17:21:09.517Z,94.90
2023-08-05T17:23:36.054Z,94.95
2023-08-05T17:26:02.664Z,95.50
2023-08-05T17:28:29.390Z,96.81
2023-08-05T17:30:56.090Z,96.81
2023-08-05T17:33:24.720Z,98.48
2023-08-05T17:35:53.225Z,99.98
2023-08-05T17:38:19.891Z,100.00
2023-08-05T17:40:46.507Z,100.00
2023-08-05T17:43:16.004Z,99.10
2023-08-05T17:45:42.499Z,99.32
2023-08-05T17:48:08.955Z,98.73
2023-08-05T17:50:35.461Z,98.35
2023-08-05T17:53:11.419Z,98.02
2023-08-05T17:55:41.704Z,97.16
2023-08-05T17:58:10.368Z,97.19
2023-08-05T18:00:40.873Z,97.67
2023-08-05T18:03:07.571Z,96.54
2023-08-05T18:05:34.146Z,96.15
2023-08-05T18:08:00.701Z,96.56
2023-08-05T18:10:27.279Z,96.11
2023-08-05T18:12:53.843Z,96.76
2023-08-05T18:15:20.471Z,98.21
2023-08-05T18:17:50.714Z,97.96
2023-08-05T18:20:17.927Z,97.25
2023-08-05T18:22:44.625Z,97.30
2023-08-05T18:25:11.306Z,98.16
2023-08-05T18:27:40.976Z,99.40
2023-08-05T18:30:08.070Z,100.00
2023-08-05T18:32:35.307Z,100.00
2023-08-05T18:35:01.936Z,100.00
2023-08-05T18:37:28.562Z,100.00
2023-08-05T18:39:55.073Z,100.00
2023-08-05T18:42:21.626Z,100.00
2023-08-05T18:44:48.350Z,100.00
2023-08-05T18:47:14.968Z,100.00
2023-08-05T18:49:41.702Z,100.00
2023-08-05T18:52:08.581Z,100.00
2023-08-05T18:54:35.233Z,100.00
2023-08-05T18:57:01.757Z,100.00
2023-08-05T18:59:28.338Z,100.00
2023-08-05T19:01:55.368Z,100.00
2023-08-05T19:04:25.223Z,100.00
2023-08-05T19:06:51.848Z,100.00
2023-08-05T19:09:18.423Z,100.00
2023-08-05T19:11:44.941Z,100.00
2023-08-05T19:14:11.489Z,100.00
2023-08-05T19:16:38.069Z,100.00
2023-08-05T19:19:05.240Z,100.00
2023-08-05T19:21:31.876Z,100.00
2023-08-05T19:23:58.374Z,100.00
2023-08-05T19:26:24.922Z,100.00
2023-08-05T19:28:51.500Z,100.00
2023-08-05T19:31:18.145Z,100.00
2023-08-05T19:33:44.872Z,100.00
2023-08-05T19:36:17.293Z,100.00
2023-08-05T19:38:44.874Z,100.00
2023-08-05T19:41:11.920Z,100.00
2023-08-05T19:43:42.350Z,100.00
2023-08-05T19:46:13.254Z,100.00
2023-08-05T19:48:43.550Z,100.00
2023-08-05T19:51:14.403Z,100.00
2023-08-05T19:53:43.299Z,100.00
2023-08-05T19:56:10.246Z,100.00
2023-08-05T19:58:36.832Z,100.00
2023-08-05T20:01:06.651Z,100.00
2023-08-05T20:03:34.472Z,100.00
2023-08-05T20:06:01.122Z,100.00
2023-08-05T20:08:27.716Z,100.00
2023-08-05T20:10:55.346Z,100.00
2023-08-05T20:13:23.538Z,100.00
2023-08-05T20:15:51.142Z,100.00
2023-08-05T20:18:19.513Z,100.00
2023-08-05T20:20:46.188Z,100.00
2023-08-05T20:23:13.538Z,100.00
2023-08-05T20:25:41.120Z,100.00
2023-08-05T20:28:07.682Z,100.00
2023-08-05T20:30:37.814Z,100.00
2023-08-05T20:33:04.826Z,100.00
2023-08-05T20:35:35.422Z,100.00
2023-08-05T20:38:02.371Z,100.00
2023-08-05T20:40:31.635Z,100.00
2023-08-05T20:42:58.226Z,100.00
2023-08-05T20:45:24.766Z,100.00
2023-08-05T20:47:52.348Z,100.00
2023-08-05T20:50:19.118Z,100.00
2023-08-05T20:52:45.817Z,100.00
2023-08-05T20:55:12.389Z,100.00
2023-08-05T20:57:39.068Z,100.00
2023-08-05T21:00:06.316Z,100.00
2023-08-05T21:02:33.046Z,100.00
2023-08-05T21:05:01.059Z,100.00
2023-08-05T21:07:31.274Z,100.00
2023-08-05T21:09:58.037Z,100.00
2023-08-05T21:12:24.688Z,100.00
2023-08-05T21:14:53.281Z,100.00
2023-08-05T21:17:19.911Z,100.00
2023-08-05T21:19:46.665Z,100.00
2023-08-05T21:22:13.271Z,100.00
2023-08-05T21:24:39.884Z,100.00
2023-08-05T21:27:06.660Z,100.00
2023-08-05T21:29:35.308Z,100.00
2023-08-05T21:32:02.038Z,100.00
2023-08-05T21:34:29.051Z,100.00
2023-08-05T21:36:55.701Z,100.00
2023-08-05T21:39:22.331Z,100.00
2023-08-05T21:41:48.936Z,100.00
2023-08-05T21:44:15.491Z,100.00
2023-08-05T21:46:42.245Z,100.00
2023-08-05T21:49:08.851Z,100.00
2023-08-05T21:51:35.398Z,100.00
2023-08-05T21:54:05.190Z,100.00
2023-08-05T21:56:31.755Z,100.00
2023-08-05T21:58:59.134Z,100.00
2023-08-05T22:01:25.707Z,100.00
2023-08-05T22:03:52.367Z,100.00
2023-08-05T22:06:18.933Z,100.00
2023-08-05T22:08:45.451Z,100.00
2023-08-05T22:11:12.076Z,100.00
2023-08-05T22:13:38.724Z,100.00
2023-08-05T22:16:05.348Z,100.00
2023-08-05T22:18:31.885Z,100.00
2023-08-05T22:21:01.600Z,100.00
2023-08-05T22:23:28.205Z,100.00
2023-08-05T22:25:54.762Z,100.00
2023-08-05T22:28:21.322Z,100.00
2023-08-05T22:30:55.752Z,100.00
2023-08-05T22:33:23.408Z,100.00
2023-08-05T22:35:52.255Z,100.00
2023-08-05T22:38:18.831Z,100.00
2023-08-05T22:40:45.476Z,100.00
2023-08-05T22:43:12.021Z,100.00
2023-08-05T22:45:38.547Z,100.00
2023-08-05T22:48:05.405Z,100.00
2023-08-05T22:50:32.192Z,100.00
2023-08-05T22:52:58.751Z,100.00
2023-08-05T22:55:25.378Z,100.00
2023-08-05T22:57:51.940Z,100.00
2023-08-05T23:00:18.444Z,100.00
2023-08-05T23:02:45.802Z,100.00
2023-08-05T23:05:12.405Z,100.00
2023-08-05T23:07:39.040Z,100.00
2023-08-05T23:10:05.791Z,100.00
2023-08-05T23:12:32.603Z,100.00
2023-08-05T23:14:59.135Z,100.00
2023-08-05T23:17:28.013Z,100.00
2023-08-05T23:19:54.558Z,100.00
2023-08-05T23:22:21.638Z,100.00
2023-08-05T23:24:48.144Z,100.00
2023-08-05T23:27:14.673Z,100.00
2023-08-05T23:29:41.136Z,100.00
2023-08-05T23:32:08.126Z,100.00
2023-08-05T23:34:36.859Z,100.00
2023-08-05T23:37:03.902Z,100.00
2023-08-05T23:39:30.837Z,100.00
2023-08-05T23:42:00.153Z,100.00
2023-08-05T23:44:26.794Z,100.00
2023-08-05T23:46:53.427Z,100.00
2023-08-05T23:49:21.057Z,100.00
2023-08-05T23:51:47.668Z,100.00
2023-08-05T23:54:15.673Z,100.00
2023-08-05T23:56:42.139Z,100.00
2023-08-05T23:59:08.641Z,100.00
